Time;durP1;ratioP1;P1;durP2;ratioP2;P2;SDS_P1;SDS_P2;PMS_P1;PMS_P2;Temp;Humidity;BMP_temperature;BMP_pressure;BME280_temperature;BME280_humidity;BME280_pressure;Samples;Min_cycle;Max_cycle;Signal;HPM_P1;HPM_P2
2023/08/23 00:01:52;;;;;;;6.80;2.50;;;19.40;99.90;;;;;;7287861;19;20195;-80
2023/08/23 00:04:21;;;;;;;5.40;2.83;;;19.40;99.90;;;;;;7285102;19;20192;-80
2023/08/23 00:06:47;;;;;;;8.33;3.20;;;19.40;99.90;;;;;;7287226;19;20200;-80
2023/08/23 00:09:13;;;;;;;9.93;3.20;;;19.30;99.90;;;;;;7284733;19;20280;-80
2023/08/23 00:11:39;;;;;;;8.27;3.10;;;19.10;99.90;;;;;;7286898;19;20668;-79
2023/08/23 00:14:05;;;;;;;9.63;3.50;;;19.00;99.90;;;;;;7284909;19;20185;-80
2023/08/23 00:16:30;;;;;;;9.93;3.80;;;19.00;99.90;;;;;;7307035;19;20194;-80
2023/08/23 00:18:56;;;;;;;8.77;3.50;;;19.00;99.90;;;;;;7285496;19;20195;-80
2023/08/23 00:21:22;;;;;;;9.13;3.20;;;19.00;99.90;;;;;;7286267;19;20300;-80
2023/08/23 00:23:47;;;;;;;12.20;3.87;;;19.00;99.90;;;;;;7284763;19;20665;-80
2023/08/23 00:26:14;;;;;;;6.10;2.70;;;19.10;99.90;;;;;;7285411;19;20194;-80
2023/08/23 00:28:40;;;;;;;6.67;2.90;;;19.10;99.90;;;;;;7283930;19;20191;-80
2023/08/23 00:31:06;;;;;;;9.10;3.00;;;19.00;99.90;;;;;;7284953;19;20186;-80
2023/08/23 00:33:33;;;;;;;6.93;2.97;;;19.00;99.90;;;;;;7283959;19;20679;-79
2023/08/23 00:35:59;;;;;;;7.73;3.33;;;19.00;99.90;;;;;;7306249;19;20186;-80
2023/08/23 00:38:25;;;;;;;7.90;3.17;;;18.90;99.90;;;;;;7282935;19;20318;-80
2023/08/23 00:40:51;;;;;;;5.80;2.90;;;18.80;99.90;;;;;;7285628;19;20194;-80
2023/08/23 00:43:16;;;;;;;10.80;3.10;;;18.70;99.90;;;;;;7284140;19;20193;-80
2023/08/23 00:45:43;;;;;;;8.40;3.13;;;18.80;99.90;;;;;;7282448;19;20184;-80
2023/08/23 00:48:11;;;;;;;7.53;2.90;;;18.80;99.90;;;;;;7282563;19;20204;-80
2023/08/23 00:50:39;;;;;;;7.60;3.10;;;18.80;99.90;;;;;;7285461;19;20521;-80
2023/08/23 00:53:08;;;;;;;9.77;3.43;;;18.80;99.90;;;;;;7283665;19;20226;-78
2023/08/23 00:55:35;;;;;;;6.83;3.20;;;18.80;99.90;;;;;;7284104;19;20194;-79
2023/08/23 00:58:02;;;;;;;6.37;3.00;;;18.80;99.90;;;;;;7299773;19;20193;-78
2023/08/23 01:00:30;;;;;;;9.17;3.30;;;18.90;99.90;;;;;;7304440;19;20197;-79
2023/08/23 01:02:57;;;;;;;6.93;3.40;;;18.80;99.90;;;;;;7284330;19;20689;-80
2023/08/23 01:05:46;;;;;;;7.70;2.87;;;18.80;99.90;;;;;;7283102;19;20193;-80
2023/08/23 01:08:14;;;;;;;9.00;3.10;;;18.80;99.90;;;;;;7179562;19;2006309;-79
2023/08/23 01:10:51;;;;;;;6.43;3.00;;;18.90;99.90;;;;;;7279714;19;20195;-79
2023/08/23 01:13:55;;;;;;;14.13;3.57;;;18.80;99.90;;;;;;7280556;19;20204;-79
2023/08/23 01:16:22;;;;;;;7.10;3.20;;;18.80;99.90;;;;;;7181107;19;2004772;-80
2023/08/23 01:18:48;;;;;;;9.83;3.63;;;18.80;99.90;;;;;;7282221;19;20204;-79
2023/08/23 01:21:21;;;;;;;7.57;3.20;;;18.80;99.90;;;;;;7283107;19;20202;-80
2023/08/23 01:23:48;;;;;;;8.53;3.30;;;18.80;99.90;;;;;;7282597;19;20188;-80
2023/08/23 01:26:14;;;;;;;6.77;3.20;;;18.80;99.90;;;;;;7284133;19;20208;-79
2023/08/23 01:28:40;;;;;;;9.30;3.50;;;18.80;99.90;;;;;;7281659;19;20189;-79
2023/08/23 01:31:10;;;;;;;9.77;3.57;;;18.80;99.90;;;;;;7283211;19;20294;-79
2023/08/23 01:34:00;;;;;;;8.17;3.33;;;18.70;99.90;;;;;;7282436;19;20187;-79
2023/08/23 01:36:30;;;;;;;7.43;3.40;;;18.70;99.90;;;;;;7282036;19;20199;-80
2023/08/23 01:38:58;;;;;;;8.67;3.30;;;18.70;99.90;;;;;;7282655;19;20216;-80
2023/08/23 01:41:24;;;;;;;7.10;3.40;;;18.70;99.90;;;;;;7282971;19;20199;-80
2023/08/23 01:43:52;;;;;;;9.03;3.33;;;18.70;99.90;;;;;;7282468;19;20197;-79
2023/08/23 01:46:18;;;;;;;7.17;3.30;;;18.70;99.90;;;;;;7281872;19;20201;-80
2023/08/23 01:48:43;;;;;;;10.80;3.47;;;18.60;99.90;;;;;;7287373;19;20196;-79
2023/08/23 01:51:09;;;;;;;9.30;4.10;;;18.60;99.90;;;;;;7287704;19;20543;-79
2023/08/23 01:53:35;;;;;;;10.47;3.63;;;18.50;99.90;;;;;;7290554;19;20250;-79
2023/08/23 01:56:01;;;;;;;9.27;3.77;;;18.40;99.90;;;;;;7310389;19;20188;-79
2023/08/23 01:58:26;;;;;;;6.83;3.03;;;18.20;99.90;;;;;;7288536;19;20228;-80
2023/08/23 02:00:53;;;;;;;8.57;3.43;;;18.00;99.90;;;;;;7287661;19;20195;-79
2023/08/23 02:03:19;;;;;;;5.73;3.50;;;18.00;99.90;;;;;;7288696;19;20206;-80
2023/08/23 02:05:45;;;;;;;8.70;3.60;;;18.00;99.90;;;;;;7287644;19;20196;-79
2023/08/23 02:08:11;;;;;;;12.63;3.50;;;18.10;99.90;;;;;;7289180;19;20647;-80
2023/08/23 02:10:37;;;;;;;9.47;3.60;;;18.10;99.90;;;;;;7288922;19;20263;-80
2023/08/23 02:13:05;;;;;;;7.50;3.40;;;18.20;99.90;;;;;;7293551;19;20719;-80
2023/08/23 02:15:31;;;;;;;11.20;3.60;;;18.20;99.90;;;;;;7310098;19;20184;-79
2023/08/23 02:17:57;;;;;;;9.93;3.60;;;18.10;99.90;;;;;;7290094;19;20187;-80
2023/08/23 02:20:23;;;;;;;6.83;3.87;;;18.10;99.90;;;;;;7289004;19;20184;-80
2023/08/23 02:22:48;;;;;;;7.57;3.33;;;18.10;99.90;;;;;;7288690;19;20190;-80
2023/08/23 02:25:14;;;;;;;7.70;3.83;;;18.20;99.90;;;;;;7288527;19;20181;-80
2023/08/23 02:27:41;;;;;;;6.77;3.37;;;18.10;99.90;;;;;;7288836;19;20272;-80
2023/08/23 02:30:07;;;;;;;9.80;3.73;;;18.00;99.90;;;;;;7288959;19;20188;-80
2023/08/23 02:32:34;;;;;;;8.33;3.87;;;17.80;99.90;;;;;;7289425;19;20836;-79
2023/08/23 02:35:02;;;;;;;9.33;3.70;;;17.90;99.90;;;;;;7310657;19;20202;-80
2023/08/23 02:37:28;;;;;;;8.77;3.57;;;17.90;99.90;;;;;;7288822;19;20185;-80
2023/08/23 02:39:53;;;;;;;9.23;4.20;;;17.70;99.90;;;;;;7287531;19;20200;-80
2023/08/23 02:42:19;;;;;;;8.13;3.50;;;17.70;99.90;;;;;;7288979;19;20188;-80
2023/08/23 02:44:45;;;;;;;10.53;4.07;;;17.60;99.90;;;;;;7286973;19;20195;-80
2023/08/23 02:47:10;;;;;;;7.47;3.57;;;17.60;99.90;;;;;;7288928;19;20293;-80
2023/08/23 02:49:36;;;;;;;10.47;3.90;;;17.60;99.90;;;;;;7288809;19;20181;-79
2023/08/23 02:52:03;;;;;;;7.13;4.00;;;17.60;99.90;;;;;;7299458;19;20226;-79
2023/08/23 02:54:29;;;;;;;9.33;4.10;;;17.60;99.90;;;;;;7308593;19;20236;-80
2023/08/23 02:56:55;;;;;;;10.43;3.97;;;17.60;99.90;;;;;;7283891;19;20233;-80
2023/08/23 02:59:20;;;;;;;7.20;3.60;;;17.50;99.90;;;;;;7278115;19;20181;-79
2023/08/23 03:01:46;;;;;;;8.67;3.87;;;17.50;99.90;;;;;;7287004;19;20205;-79
2023/08/23 03:04:12;;;;;;;10.40;3.80;;;17.50;99.90;;;;;;7286554;19;20644;-79
2023/08/23 03:06:38;;;;;;;7.53;3.93;;;17.60;99.90;;;;;;7286035;19;20195;-80
2023/08/23 03:09:09;;;;;;;8.80;4.00;;;17.70;99.90;;;;;;7287479;19;20285;-80
2023/08/23 03:11:37;;;;;;;7.83;3.40;;;17.80;99.90;;;;;;7287471;19;20187;-81
2023/08/23 03:14:05;;;;;;;9.23;3.77;;;17.80;99.90;;;;;;7288842;19;20236;-79
2023/08/23 03:16:32;;;;;;;7.80;3.63;;;17.70;99.90;;;;;;7305159;19;20195;-78
2023/08/23 03:18:58;;;;;;;9.57;3.57;;;17.70;99.90;;;;;;7307107;19;20189;-81
2023/08/23 03:21:24;;;;;;;7.37;3.43;;;17.70;99.90;;;;;;7287097;19;20194;-80
2023/08/23 03:23:50;;;;;;;8.83;3.80;;;17.70;99.90;;;;;;7286096;19;20193;-81
2023/08/23 03:26:16;;;;;;;9.87;4.00;;;17.80;99.90;;;;;;7285828;19;20197;-79
2023/08/23 03:28:42;;;;;;;11.63;4.37;;;17.80;99.90;;;;;;7286306;19;20624;-80
2023/08/23 03:31:09;;;;;;;8.60;3.47;;;17.70;99.90;;;;;;7286679;19;20189;-80
2023/08/23 03:33:35;;;;;;;7.77;3.53;;;17.70;99.90;;;;;;7284930;19;20664;-79
2023/08/23 03:36:01;;;;;;;9.13;3.47;;;17.60;99.90;;;;;;7308272;19;20187;-80
2023/08/23 03:38:27;;;;;;;9.87;3.67;;;17.50;99.90;;;;;;7286478;19;20199;-80
2023/08/23 03:40:53;;;;;;;9.77;3.90;;;17.50;99.90;;;;;;7288641;19;20545;-80
2023/08/23 03:43:19;;;;;;;8.43;3.63;;;17.40;99.90;;;;;;7286220;19;20192;-80
2023/08/23 03:45:49;;;;;;;11.63;4.07;;;17.40;99.90;;;;;;7286358;19;20185;-80
2023/08/23 03:48:15;;;;;;;9.00;3.60;;;17.40;99.90;;;;;;7286367;19;20198;-80
2023/08/23 03:50:41;;;;;;;7.90;3.53;;;17.50;99.90;;;;;;7287322;19;20200;-80
2023/08/23 03:53:07;;;;;;;8.47;3.47;;;17.40;99.90;;;;;;7285573;19;20266;-80
2023/08/23 03:55:36;;;;;;;7.63;3.27;;;17.40;99.90;;;;;;7285793;19;20189;-80
2023/08/23 03:58:04;;;;;;;11.50;3.87;;;17.40;99.90;;;;;;7283751;19;20204;-80
2023/08/23 04:00:31;;;;;;;8.23;3.90;;;17.40;99.90;;;;;;7308309;19;20207;-80
2023/08/23 04:02:56;;;;;;;7.97;3.90;;;17.40;99.90;;;;;;7286699;19;20538;-80
2023/08/23 04:05:22;;;;;;;8.87;3.47;;;17.50;99.90;;;;;;7285200;19;20189;-80
2023/08/23 04:07:48;;;;;;;9.10;3.53;;;17.40;99.90;;;;;;7286377;19;20192;-80
2023/08/23 04:10:14;;;;;;;11.10;4.03;;;17.40;99.90;;;;;;7285496;19;20185;-80
2023/08/23 04:12:39;;;;;;;8.97;3.70;;;17.40;99.90;;;;;;7285175;19;20185;-80
2023/08/23 04:15:06;;;;;;;9.40;4.00;;;17.50;99.90;;;;;;7285349;19;20886;-81
2023/08/23 04:17:32;;;;;;;7.70;4.07;;;17.50;99.90;;;;;;7299909;19;20206;-80
2023/08/23 04:19:57;;;;;;;8.30;3.93;;;17.50;99.90;;;;;;7297107;19;20185;-81
2023/08/23 04:22:23;;;;;;;10.13;3.77;;;17.40;99.90;;;;;;7284538;19;20706;-81
2023/08/23 04:24:51;;;;;;;12.47;3.80;;;17.40;99.90;;;;;;7284777;19;20200;-80
2023/08/23 04:27:18;;;;;;;9.97;3.60;;;17.20;99.90;;;;;;7284574;19;20215;-80
2023/08/23 04:29:44;;;;;;;7.50;3.23;;;17.20;99.90;;;;;;7285824;19;20662;-80
2023/08/23 04:32:12;;;;;;;7.70;3.50;;;17.20;99.90;;;;;;7283875;19;20206;-80
2023/08/23 04:34:39;;;;;;;8.70;4.03;;;17.20;99.90;;;;;;7284256;19;20664;-81
2023/08/23 04:37:06;;;;;;;8.47;4.10;;;17.20;99.90;;;;;;7282785;19;20188;-79
2023/08/23 04:39:34;;;;;;;9.70;4.10;;;17.20;99.90;;;;;;7286144;19;20201;-79
2023/08/23 04:42:00;;;;;;;8.90;3.90;;;17.20;99.90;;;;;;7307775;19;20189;-79
2023/08/23 04:44:27;;;;;;;10.77;3.90;;;17.00;99.90;;;;;;7283743;19;20187;-80
2023/08/23 04:46:54;;;;;;;10.50;4.17;;;16.80;99.90;;;;;;7284359;19;20192;-79
2023/08/23 04:49:21;;;;;;;8.87;4.23;;;16.80;99.90;;;;;;7284090;19;20204;-81
2023/08/23 04:51:47;;;;;;;7.70;3.67;;;16.70;99.90;;;;;;7285180;19;20209;-80
2023/08/23 04:54:14;;;;;;;7.83;3.60;;;16.80;99.90;;;;;;7284137;19;20203;-79
2023/08/23 04:56:40;;;;;;;8.93;3.73;;;16.80;99.90;;;;;;7282619;19;20196;-79
2023/08/23 04:59:06;;;;;;;9.03;3.70;;;16.70;99.90;;;;;;7282986;19;20192;-80
2023/08/23 05:01:31;;;;;;;8.97;3.50;;;16.80;99.90;;;;;;7303703;19;20195;-78
2023/08/23 05:03:57;;;;;;;7.80;3.83;;;16.80;99.90;;;;;;7296637;19;20194;-81
2023/08/23 05:06:23;;;;;;;8.10;3.90;;;16.80;99.90;;;;;;7282723;19;20256;-80
2023/08/23 05:08:50;;;;;;;9.30;4.17;;;16.70;99.90;;;;;;7281065;19;20189;-80
2023/08/23 05:11:21;;;;;;;9.63;3.80;;;16.60;99.90;;;;;;7280962;19;20189;-80
2023/08/23 05:13:50;;;;;;;11.17;4.03;;;16.60;99.90;;;;;;7281747;19;20195;-81
2023/08/23 05:16:16;;;;;;;7.70;3.70;;;16.70;99.90;;;;;;7281943;19;20214;-80
2023/08/23 05:18:44;;;;;;;7.73;3.67;;;17.00;99.90;;;;;;7280713;19;20193;-80
2023/08/23 05:21:10;;;;;;;8.93;4.00;;;17.20;99.90;;;;;;7283195;19;20653;-79
2023/08/23 05:23:36;;;;;;;7.70;3.47;;;17.50;99.90;;;;;;7280197;19;20189;-78
2023/08/23 05:26:03;;;;;;;9.20;3.80;;;17.70;99.90;;;;;;7300605;19;20932;-79
2023/08/23 05:28:29;;;;;;;10.10;3.70;;;17.90;99.90;;;;;;7304652;19;20256;-79
2023/08/23 05:30:55;;;;;;;8.67;3.70;;;18.10;99.90;;;;;;7284495;19;20192;-80
2023/08/23 05:33:27;;;;;;;5.20;3.10;;;18.50;99.90;;;;;;7285560;19;20197;-79
2023/08/23 05:35:55;;;;;;;10.40;3.63;;;19.30;99.90;;;;;;7282250;19;20192;-79
2023/08/23 05:38:23;;;;;;;7.30;3.30;;;20.00;99.90;;;;;;7280402;19;20199;-79
2023/08/23 05:40:51;;;;;;;7.93;2.73;;;20.60;99.90;;;;;;7282912;19;20184;-79
2023/08/23 05:43:18;;;;;;;8.80;3.07;;;21.40;99.90;;;;;;7280310;19;20194;-79
2023/08/23 05:45:44;;;;;;;7.53;2.93;;;21.70;99.90;;;;;;7281567;19;20818;-79
2023/08/23 05:48:10;;;;;;;9.63;2.77;;;21.70;99.90;;;;;;7281222;19;20194;-79
2023/08/23 05:50:37;;;;;;;8.63;3.00;;;21.60;99.90;;;;;;7283501;19;20183;-78
2023/08/23 05:53:09;;;;;;;12.90;3.57;;;21.90;99.90;;;;;;7286261;19;20187;-78
2023/08/23 05:55:36;;;;;;;9.90;3.33;;;22.60;99.90;;;;;;7283251;19;20200;-80
2023/08/23 05:58:02;;;;;;;10.50;3.30;;;23.40;99.90;;;;;;7302561;19;20200;-77
2023/08/23 06:00:28;;;;;;;10.47;3.00;;;24.00;99.90;;;;;;7295315;19;20189;-80
2023/08/23 06:02:54;;;;;;;6.27;2.80;;;24.30;99.90;;;;;;7280808;19;20203;-79
2023/08/23 06:05:19;;;;;;;8.17;2.70;;;24.70;99.90;;;;;;7282873;19;20863;-79
2023/08/23 06:07:45;;;;;;;9.27;2.80;;;25.10;99.90;;;;;;7282949;19;20869;-78
2023/08/23 06:10:11;;;;;;;9.67;2.87;;;25.50;99.90;;;;;;7281538;19;20188;-79
2023/08/23 06:12:37;;;;;;;8.70;2.67;;;25.70;99.90;;;;;;7281697;19;20714;-79
2023/08/23 06:15:04;;;;;;;9.23;2.70;;;26.10;99.90;;;;;;7288366;19;20181;-78
2023/08/23 06:17:30;;;;;;;7.45;2.53;;;26.50;99.90;;;;;;7302024;19;20494;-79
2023/08/23 06:19:56;;;;;;;11.90;2.70;;;26.80;99.90;;;;;;7279713;19;20215;-79
2023/08/23 06:22:22;;;;;;;7.55;3.00;;;27.00;99.90;;;;;;7282655;19;20201;-78
2023/08/23 06:24:48;;;;;;;9.10;2.90;;;27.30;99.90;;;;;;7281063;19;20189;-78
2023/08/23 06:27:14;;;;;;;10.48;3.03;;;27.40;99.90;;;;;;7282106;19;20201;-78
2023/08/23 06:29:40;;;;;;;10.48;3.30;;;27.40;99.90;;;;;;7281609;19;20181;-77
2023/08/23 06:32:07;;;;;;;12.00;2.83;;;27.30;99.90;;;;;;7276851;19;20189;-77
2023/08/23 06:34:34;;;;;;;10.68;3.25;;;27.30;99.90;;;;;;7288290;19;20215;-77
2023/08/23 06:37:00;;;;;;;8.80;2.83;;;27.60;99.90;;;;;;7306523;19;20192;-77
2023/08/23 06:39:25;;;;;;;6.63;3.22;;;28.00;99.90;;;;;;7284357;19;20181;-77
2023/08/23 06:41:51;;;;;;;10.70;4.53;;;28.50;99.90;;;;;;7286122;19;21192;-77
2023/08/23 06:44:17;;;;;;;8.18;3.15;;;28.90;99.90;;;;;;7283391;19;20188;-77
2023/08/23 06:46:42;;;;;;;7.47;3.40;;;29.50;99.90;;;;;;7281953;19;20221;-77
2023/08/23 06:49:08;;;;;;;10.05;4.85;;;30.10;99.90;;;;;;7283424;19;20213;-76
2023/08/23 06:51:34;;;;;;;9.30;3.83;;;30.10;99.90;;;;;;7283398;19;20663;-77
2023/08/23 06:54:00;;;;;;;10.13;4.28;;;30.30;99.90;;;;;;7306800;19;20755;-77
2023/08/23 06:56:26;;;;;;;18.67;7.13;;;30.80;99.90;;;;;;7283020;19;20191;-77
2023/08/23 06:58:52;;;;;;;14.07;7.07;;;31.60;99.90;;;;;;7283641;19;20224;-76
2023/08/23 07:01:18;;;;;;;12.13;6.57;;;32.50;99.90;;;;;;7283127;19;20678;-77
2023/08/23 07:03:44;;;;;;;12.27;7.70;;;33.30;99.90;;;;;;7283985;19;20201;-77
2023/08/23 07:06:14;;;;;;;15.52;7.90;;;34.30;99.90;;;;;;7283183;19;20192;-77
2023/08/23 07:08:43;;;;;;;15.27;7.45;;;35.00;99.90;;;;;;7284844;19;20188;-76
2023/08/23 07:11:09;;;;;;;15.18;7.68;;;35.30;98.40;;;;;;7283063;19;20242;-76
2023/08/23 07:13:36;;;;;;;17.25;7.63;;;36.00;96.90;;;;;;7282463;19;20596;-76
2023/08/23 07:16:03;;;;;;;15.45;8.20;;;36.30;94.60;;;;;;7302550;19;20220;-76
2023/08/23 07:18:29;;;;;;;14.48;7.63;;;36.60;92.50;;;;;;7304235;19;20729;-77
2023/08/23 07:20:55;;;;;;;13.40;7.15;;;36.90;91.60;;;;;;7284063;19;20276;-76
2023/08/23 07:23:20;;;;;;;16.67;8.00;;;37.30;89.70;;;;;;7283342;19;20201;-77
2023/08/23 07:25:46;;;;;;;13.65;7.20;;;38.00;87.60;;;;;;7283740;19;20196;-77
2023/08/23 07:28:12;;;;;;;14.82;8.25;;;38.20;82.00;;;;;;7284026;19;20653;-76
2023/08/23 07:30:43;;;;;;;13.80;7.50;;;38.60;80.80;;;;;;7283654;19;20189;-77
2023/08/23 07:33:09;;;;;;;20.30;8.23;;;38.70;80.10;;;;;;7283847;19;20201;-77
2023/08/23 07:35:34;;;;;;;15.57;7.68;;;38.80;78.30;;;;;;7283776;19;20764;-77
2023/08/23 07:38:00;;;;;;;15.73;7.40;;;38.80;75.90;;;;;;7304942;19;20189;-77
2023/08/23 07:40:26;;;;;;;14.52;7.45;;;38.90;76.60;;;;;;7282640;19;20688;-77
2023/08/23 07:42:52;;;;;;;18.65;8.30;;;39.10;75.20;;;;;;7281159;19;20305;-77
2023/08/23 07:45:17;;;;;;;20.05;8.20;;;39.30;73.10;;;;;;7279917;19;20204;-77
2023/08/23 07:47:43;;;;;;;17.73;7.60;;;39.30;71.80;;;;;;7281952;19;20188;-76
2023/08/23 07:50:09;;;;;;;13.35;7.03;;;39.50;70.60;;;;;;7280463;19;20193;-76
2023/08/23 07:52:36;;;;;;;19.90;8.20;;;40.20;69.70;;;;;;7281254;19;20188;-77
2023/08/23 07:55:01;;;;;;;25.70;7.13;;;40.60;68.10;;;;;;7303513;19;20188;-77
2023/08/23 07:57:27;;;;;;;19.33;7.30;;;39.70;69.40;;;;;;7281633;19;20313;-77
2023/08/23 07:59:55;;;;;;;14.88;6.78;;;39.70;68.80;;;;;;7280817;19;20178;-77
2023/08/23 08:02:22;;;;;;;15.50;7.20;;;38.40;69.60;;;;;;7282183;19;20189;-76
2023/08/23 08:04:47;;;;;;;15.98;7.13;;;38.90;71.10;;;;;;7279283;19;20993;-77
2023/08/23 08:07:13;;;;;;;18.25;6.60;;;39.30;69.30;;;;;;7281856;19;20196;-76
2023/08/23 08:09:39;;;;;;;20.25;7.63;;;39.60;67.80;;;;;;7279695;19;20184;-77
2023/08/23 08:12:05;;;;;;;19.48;7.82;;;39.30;67.80;;;;;;7280960;19;20199;-76
2023/08/23 08:14:31;;;;;;;16.98;6.88;;;39.60;66.50;;;;;;7302855;19;21142;-77
2023/08/23 08:16:57;;;;;;;14.90;6.47;;;39.80;66.30;;;;;;7282746;19;20641;-77
2023/08/23 08:19:22;;;;;;;15.00;7.18;;;40.50;66.50;;;;;;7280985;19;21577;-77
2023/08/23 08:21:48;;;;;;;12.07;6.88;;;40.70;64.10;;;;;;7280783;19;20193;-76
2023/08/23 08:24:14;;;;;;;12.93;6.90;;;40.50;62.80;;;;;;7282086;19;20198;-77
2023/08/23 08:26:39;;;;;;;13.68;7.40;;;40.10;62.80;;;;;;7282203;19;20188;-78
2023/08/23 08:29:05;;;;;;;14.20;6.75;;;40.70;62.70;;;;;;7280930;19;20648;-77
2023/08/23 08:31:31;;;;;;;12.15;5.78;;;41.20;62.30;;;;;;7302367;19;20188;-76
2023/08/23 08:33:58;;;;;;;9.90;5.43;;;41.10;61.80;;;;;;7280914;19;20189;-76
2023/08/23 08:36:23;;;;;;;11.95;5.90;;;40.70;61.30;;;;;;7280102;19;20185;-77
2023/08/23 08:38:49;;;;;;;11.30;5.60;;;41.20;61.20;;;;;;7280136;19;20184;-77
2023/08/23 08:41:16;;;;;;;9.88;5.40;;;40.90;60.40;;;;;;7279767;19;21124;-77
2023/08/23 08:43:41;;;;;;;10.98;5.80;;;41.40;60.00;;;;;;7280752;19;20193;-76
2023/08/23 08:46:07;;;;;;;12.55;6.22;;;41.10;60.80;;;;;;7278913;19;20188;-76
2023/08/23 08:48:33;;;;;;;11.65;5.90;;;41.60;59.50;;;;;;7291290;19;20776;-76
2023/08/23 08:50:59;;;;;;;11.52;5.60;;;41.60;59.90;;;;;;7300708;19;20295;-78
2023/08/23 08:53:31;;;;;;;11.13;5.10;;;41.80;60.20;;;;;;7280077;19;21129;-77
2023/08/23 08:55:58;;;;;;;10.88;5.32;;;42.40;59.90;;;;;;7280259;19;20184;-77
2023/08/23 08:58:25;;;;;;;12.02;5.65;;;42.90;58.00;;;;;;7278492;19;20398;-76
2023/08/23 09:00:53;;;;;;;16.13;5.75;;;42.50;57.60;;;;;;7280753;19;20199;-77
2023/08/23 09:03:19;;;;;;;17.27;5.72;;;42.20;59.20;;;;;;7280053;19;20945;-77
2023/08/23 09:05:48;;;;;;;15.05;6.03;;;42.00;59.50;;;;;;7279374;19;20256;-76
2023/08/23 09:08:15;;;;;;;16.95;6.30;;;41.30;58.30;;;;;;7281001;19;20193;-76
2023/08/23 09:10:41;;;;;;;15.93;5.15;;;40.30;59.50;;;;;;7278518;19;20197;-76
2023/08/23 09:13:06;;;;;;;15.57;5.78;;;40.80;59.50;;;;;;7279439;19;20181;-76
2023/08/23 09:15:32;;;;;;;14.57;5.68;;;41.10;59.40;;;;;;7295154;19;20209;-76
2023/08/23 09:17:59;;;;;;;17.90;5.70;;;40.40;59.50;;;;;;7294694;19;20545;-77
2023/08/23 09:20:25;;;;;;;18.50;5.55;;;40.90;59.80;;;;;;7279497;19;20188;-77
2023/08/23 09:22:55;;;;;;;16.55;5.30;;;41.80;59.70;;;;;;7280188;19;20185;-77
2023/08/23 09:25:23;;;;;;;14.02;4.65;;;42.50;59.10;;;;;;7278781;19;20197;-77
2023/08/23 09:27:49;;;;;;;12.93;5.10;;;42.30;57.70;;;;;;7278875;19;20524;-77
2023/08/23 09:30:15;;;;;;;13.70;5.13;;;42.70;57.90;;;;;;7278602;19;20209;-76
2023/08/23 09:32:42;;;;;;;13.27;5.53;;;42.80;56.70;;;;;;7277165;19;20663;-76
2023/08/23 09:35:15;;;;;;;17.92;6.18;;;42.20;57.60;;;;;;7278660;19;20183;-76
2023/08/23 09:37:47;;;;;;;13.48;5.53;;;42.40;57.00;;;;;;7274630;19;20656;-76
2023/08/23 09:40:24;;;;;;;16.70;6.00;;;42.80;56.70;;;;;;7278464;19;20206;-76
2023/08/23 09:42:50;;;;;;;15.10;5.72;;;43.00;56.40;;;;;;7277341;19;20972;-77
2023/08/23 09:45:18;;;;;;;11.40;6.18;;;43.40;56.20;;;;;;7277742;19;20197;-76
2023/08/23 09:47:51;;;;;;;15.55;6.97;;;43.50;55.90;;;;;;7278714;19;20194;-76
2023/08/23 09:50:19;;;;;;;15.00;6.47;;;43.60;54.60;;;;;;7278323;19;20192;-76
2023/08/23 09:52:47;;;;;;;15.35;6.82;;;43.00;55.70;;;;;;7278658;19;20252;-77
2023/08/23 09:55:13;;;;;;;14.05;7.30;;;42.80;55.50;;;;;;7278193;19;20192;-77
2023/08/23 09:57:41;;;;;;;15.10;7.50;;;42.30;55.10;;;;;;7278591;19;20189;-76
2023/08/23 10:00:08;;;;;;;13.07;6.43;;;42.30;55.10;;;;;;7282520;19;20317;-76
2023/08/23 10:02:34;;;;;;;9.95;5.78;;;42.50;56.00;;;;;;7280633;19;20264;-76
2023/08/23 10:05:06;;;;;;;15.90;6.90;;;41.20;56.50;;;;;;7299755;19;20766;-77
2023/08/23 10:07:35;;;;;;;10.73;6.47;;;41.70;55.70;;;;;;7279632;19;20196;-77
2023/08/23 10:10:03;;;;;;;9.57;5.13;;;42.00;54.70;;;;;;7284137;19;20180;-77
2023/08/23 10:12:30;;;;;;;11.45;5.18;;;42.20;54.90;;;;;;7284414;19;20176;-76
2023/08/23 10:14:57;;;;;;;8.73;4.90;;;43.10;55.30;;;;;;7283999;19;20181;-77
2023/08/23 10:17:24;;;;;;;10.45;5.10;;;43.00;53.20;;;;;;7287427;19;20278;-77
2023/08/23 10:19:52;;;;;;;8.52;4.78;;;42.90;52.70;;;;;;7284321;19;20253;-77
2023/08/23 10:22:18;;;;;;;9.65;4.13;;;43.00;53.30;;;;;;7284836;19;20196;-77
2023/08/23 10:24:50;;;;;;;9.30;4.82;;;43.20;54.00;;;;;;7283185;19;20185;-76
2023/08/23 10:27:17;;;;;;;9.80;4.70;;;42.80;52.90;;;;;;7284749;19;20177;-76
2023/08/23 10:29:48;;;;;;;10.38;4.80;;;42.80;52.20;;;;;;7285798;19;20195;-76
2023/08/23 10:32:14;;;;;;;9.95;4.30;;;43.20;52.60;;;;;;7283697;19;20189;-77
2023/08/23 10:34:43;;;;;;;9.05;4.18;;;43.80;52.50;;;;;;7283454;19;20193;-76
2023/08/23 10:37:15;;;;;;;10.05;4.85;;;44.10;53.10;;;;;;7284476;19;20184;-76
2023/08/23 10:39:54;;;;;;;11.73;4.93;;;44.40;50.50;;;;;;7284391;19;20743;-76
2023/08/23 10:42:21;;;;;;;8.07;4.30;;;43.30;52.20;;;;;;7283873;19;20189;-76
2023/08/23 10:44:59;;;;;;;9.68;5.15;;;42.20;52.20;;;;;;7281420;19;20189;-76
2023/08/23 10:47:25;;;;;;;8.13;3.80;;;42.70;52.00;;;;;;7284278;19;20189;-76
2023/08/23 10:49:52;;;;;;;10.23;4.22;;;42.90;54.20;;;;;;7284087;19;20204;-76
2023/08/23 10:52:20;;;;;;;8.63;3.78;;;42.80;53.60;;;;;;7283474;19;20192;-76
2023/08/23 10:54:46;;;;;;;10.38;4.38;;;42.00;51.90;;;;;;7283052;19;20189;-77
2023/08/23 10:57:12;;;;;;;9.20;3.90;;;42.50;51.90;;;;;;7284592;19;20232;-76
2023/08/23 10:59:38;;;;;;;9.32;3.50;;;42.20;51.70;;;;;;7283033;19;20193;-77
2023/08/23 11:02:04;;;;;;;10.88;3.15;;;42.90;53.10;;;;;;7290381;19;20193;-77
2023/08/23 11:04:31;;;;;;;8.50;3.42;;;43.20;51.30;;;;;;7304809;19;20265;-77
2023/08/23 11:06:56;;;;;;;8.40;3.25;;;43.40;51.60;;;;;;7284313;19;20193;-77
2023/08/23 11:09:23;;;;;;;6.90;3.22;;;43.60;50.60;;;;;;7284273;19;20198;-77
2023/08/23 11:11:49;;;;;;;7.82;3.42;;;43.50;51.20;;;;;;7283601;19;20189;-77
2023/08/23 11:14:14;;;;;;;9.27;4.10;;;42.80;51.20;;;;;;7284815;19;20189;-77
2023/08/23 11:16:41;;;;;;;9.93;4.40;;;43.60;51.90;;;;;;7282018;19;20181;-76
2023/08/23 11:19:07;;;;;;;9.80;4.55;;;43.00;49.90;;;;;;7282518;19;20573;-76
2023/08/23 11:21:35;;;;;;;11.23;4.75;;;43.20;49.00;;;;;;7291963;19;20202;-76
2023/08/23 11:24:04;;;;;;;11.30;4.97;;;43.00;49.40;;;;;;7303378;19;20180;-76
2023/08/23 11:26:33;;;;;;;11.50;5.75;;;42.40;50.80;;;;;;7282651;19;20196;-77
2023/08/23 11:28:59;;;;;;;10.88;5.20;;;41.70;50.50;;;;;;7284467;19;20607;-76
2023/08/23 11:31:26;;;;;;;11.50;4.63;;;40.80;52.00;;;;;;7282101;19;20193;-76
2023/08/23 11:33:52;;;;;;;14.25;4.60;;;40.00;52.10;;;;;;7282042;19;20189;-77
2023/08/23 11:36:21;;;;;;;7.57;3.22;;;38.90;53.50;;;;;;7280945;19;20217;-76
2023/08/23 11:38:48;;;;;;;8.80;3.47;;;38.60;56.20;;;;;;7282445;19;20189;-75
2023/08/23 11:41:13;;;;;;;9.00;4.18;;;38.70;56.50;;;;;;7283521;19;20232;-76
2023/08/23 11:43:45;;;;;;;9.00;4.03;;;38.20;57.30;;;;;;7283098;19;20245;-76
2023/08/23 11:46:12;;;;;;;8.48;3.63;;;38.80;56.10;;;;;;7281004;19;20803;-76
2023/08/23 11:48:38;;;;;;;10.45;4.43;;;40.00;55.10;;;;;;7283370;19;20189;-78
2023/08/23 11:51:05;;;;;;;9.80;3.60;;;39.90;54.60;;;;;;7287527;19;20659;-76
2023/08/23 11:53:31;;;;;;;8.48;3.70;;;39.80;55.70;;;;;;7304078;19;20596;-77
2023/08/23 11:56:00;;;;;;;9.93;4.13;;;40.40;54.40;;;;;;7280030;19;20712;-76
2023/08/23 11:58:26;;;;;;;9.93;3.47;;;40.30;53.30;;;;;;7280938;19;20281;-77
2023/08/23 12:00:52;;;;;;;7.13;2.42;;;39.40;54.50;;;;;;7281209;19;20184;-76
2023/08/23 12:03:17;;;;;;;6.85;2.78;;;39.60;55.00;;;;;;7282448;19;20188;-77
2023/08/23 12:05:43;;;;;;;9.80;2.90;;;38.60;55.00;;;;;;7279745;19;20193;-78
2023/08/23 12:08:09;;;;;;;5.63;2.13;;;39.40;54.40;;;;;;7283408;19;20237;-77
2023/08/23 12:10:35;;;;;;;5.90;2.17;;;39.20;55.40;;;;;;7279860;19;20181;-77
2023/08/23 12:13:00;;;;;;;6.55;2.90;;;39.80;54.90;;;;;;7303928;19;20203;-78
2023/08/23 12:15:26;;;;;;;8.25;3.47;;;40.40;55.30;;;;;;7281647;19;20189;-77
2023/08/23 12:17:53;;;;;;;8.82;2.90;;;40.30;53.80;;;;;;7278023;19;20750;-77
2023/08/23 12:20:19;;;;;;;7.82;3.05;;;40.80;55.00;;;;;;7282910;19;20939;-79
2023/08/23 12:22:46;;;;;;;8.73;3.13;;;40.50;54.60;;;;;;7282463;19;20197;-77
2023/08/23 12:25:12;;;;;;;6.78;2.70;;;39.50;55.00;;;;;;7278987;19;20197;-77
2023/08/23 12:27:38;;;;;;;6.05;2.30;;;40.20;54.00;;;;;;7282639;19;20193;-76
2023/08/23 12:30:05;;;;;;;6.82;2.53;;;39.60;56.10;;;;;;7291582;19;20675;-76
2023/08/23 12:32:31;;;;;;;5.53;1.98;;;39.60;55.70;;;;;;7301348;19;20189;-76
2023/08/23 12:34:57;;;;;;;6.47;2.53;;;39.30;56.50;;;;;;7282876;19;20248;-76
2023/08/23 12:37:22;;;;;;;8.07;2.30;;;38.30;55.40;;;;;;7281307;19;20208;-76
2023/08/23 12:39:49;;;;;;;7.20;2.30;;;36.80;58.20;;;;;;7281099;19;20253;-78
2023/08/23 12:42:16;;;;;;;6.97;2.33;;;36.10;62.50;;;;;;7281249;19;20193;-78